EGPI/ILY METAR and TAF weather

Enter ICAO airport designator
Station Type Date Time Source
EGPI METAR 2018/12/12 17:20 UTC NOAA

EGPI 121720Z AUTO 13023KT 100V160 7000 BKN009/// BKN016/// 08/07 Q1011


Station Type Date Time Source
EGPI Decoded METAR 2018/12/12 17:20 UTC NOAA

Islay, United Kingdom (EGPI) 55-40-55N 006-15-24W
Dec 12, 2018 - 12:20 PM EST / 2018.12.12 1720 UTC
Wind: from the SE (130 degrees) at 26 MPH (23 KT) (direction variable):0
Visibility: 4 mile(s):0
Sky conditions: mostly cloudy
Temperature: 46 F (8 C)
Dew Point: 44 F (7 C)
Relative Humidity: 93%
Pressure (altimeter): 29.85 in. Hg (1011 hPa)
ob: EGPI 121720Z AUTO 13023KT 100V160 7000 BKN009/// BKN016/// 08/07 Q1011
cycle: 17

Station Type Date Time Source
EGPI TAF UTC NOAA

Error!


Example: see airport list